createdAt,value
2019-03-29T14:59:29.270Z,19.00
2019-03-29T15:01:57.959Z,21.20
2019-03-29T15:04:26.568Z,23.60
2019-03-29T15:06:55.483Z,24.10
2019-03-29T15:09:24.208Z,24.80
2019-03-29T15:11:52.940Z,25.20
2019-03-29T15:14:23.153Z,25.10
2019-03-29T15:16:51.993Z,26.60
2019-03-29T15:19:24.629Z,25.30
2019-03-29T15:21:53.406Z,24.00
2019-03-29T15:24:22.057Z,23.60
2019-03-29T15:26:52.570Z,24.50
2019-03-29T15:29:20.886Z,24.20
2019-03-29T15:31:49.539Z,24.10
2019-03-29T15:34:18.238Z,23.50
2019-03-29T15:36:46.853Z,24.40
2019-03-29T15:39:15.973Z,25.40
2019-03-29T15:41:44.510Z,25.40
2019-03-29T15:44:13.065Z,24.00
2019-03-29T15:46:41.675Z,23.40
2019-03-29T15:49:10.277Z,23.40
2019-03-29T15:51:39.378Z,23.30
2019-03-29T15:54:07.956Z,23.60
2019-03-29T15:56:36.557Z,24.10
2019-03-29T15:59:05.292Z,24.70
2019-03-29T16:01:33.948Z,23.80
2019-03-29T16:04:02.545Z,23.80
2019-03-29T16:06:31.181Z,23.20
2019-03-29T16:08:59.842Z,23.10
2019-03-29T16:11:28.928Z,22.60
2019-03-29T16:13:57.565Z,23.30
2019-03-29T16:16:26.231Z,22.70
2019-03-29T16:18:54.812Z,21.90
2019-03-29T16:21:23.402Z,21.70
2019-03-29T16:23:53.619Z,21.60
2019-03-29T16:26:22.188Z,21.50
2019-03-29T16:28:50.826Z,21.50
2019-03-29T16:31:19.413Z,21.30
2019-03-29T16:33:48.010Z,20.50
2019-03-29T16:36:16.593Z,19.80
2019-03-29T16:38:45.185Z,19.50
2019-03-29T16:41:13.865Z,19.40
2019-03-29T16:43:50.234Z,19.10
2019-03-29T16:46:18.886Z,19.00
2019-03-29T16:48:47.486Z,18.40
2019-03-29T16:51:16.133Z,17.80
2019-03-29T16:53:44.805Z,16.90
2019-03-29T16:56:13.517Z,16.40
2019-03-29T16:58:42.283Z,16.10
2019-03-29T17:01:10.991Z,15.60
2019-03-29T17:03:41.106Z,15.20
2019-03-29T17:06:10.804Z,15.10
2019-03-29T17:08:39.494Z,14.90
2019-03-29T17:11:08.062Z,14.70
2019-03-29T17:13:36.715Z,14.60
2019-03-29T17:16:05.726Z,14.50
2019-03-29T17:18:34.425Z,14.40
2019-03-29T17:21:03.238Z,14.30
2019-03-29T17:23:31.976Z,14.10
2019-03-29T17:26:00.557Z,14.00
2019-03-29T17:28:29.224Z,13.90
2019-03-29T17:31:05.606Z,13.80
2019-03-29T17:33:34.250Z,13.70
2019-03-29T17:36:02.909Z,13.50
2019-03-29T17:38:33.117Z,13.40
2019-03-29T17:41:01.778Z,13.30
2019-03-29T17:43:30.546Z,13.20
2019-03-29T17:45:59.126Z,13.00
2019-03-29T17:48:27.738Z,12.80
2019-03-29T17:50:56.400Z,12.60
2019-03-29T17:53:25.074Z,12.50
2019-03-29T17:55:53.655Z,12.40
2019-03-29T17:58:22.414Z,12.30
2019-03-29T18:00:51.099Z,12.20
2019-03-29T18:03:19.695Z,12.20
2019-03-29T18:05:48.396Z,12.10
2019-03-29T18:08:16.958Z,11.90
2019-03-29T18:10:45.656Z,11.80
2019-03-29T18:13:14.308Z,11.60
2019-03-29T18:15:42.935Z,11.40
2019-03-29T18:18:13.083Z,11.20
2019-03-29T18:20:41.814Z,11.00
2019-03-29T18:23:10.470Z,10.80
2019-03-29T18:25:40.943Z,10.60
2019-03-29T18:28:09.582Z,10.40
2019-03-29T18:30:42.292Z,10.30
2019-03-29T18:33:12.474Z,10.30
2019-03-29T18:35:41.318Z,10.20
2019-03-29T18:38:10.041Z,10.00
2019-03-29T18:40:38.815Z,9.80
2019-03-29T18:43:07.505Z,9.60
2019-03-29T18:45:36.218Z,9.50
2019-03-29T18:48:04.934Z,9.40
2019-03-29T18:50:33.538Z,9.30
2019-03-29T18:53:02.288Z,9.20
2019-03-29T18:55:31.041Z,9.10
2019-03-29T18:57:59.764Z,9.00
2019-03-29T19:00:33.282Z,8.90
2019-03-29T19:03:02.117Z,8.80
2019-03-29T19:05:31.094Z,8.60
2019-03-29T19:07:59.891Z,8.50
2019-03-29T19:10:28.609Z,8.40
2019-03-29T19:12:57.185Z,8.40
2019-03-29T19:15:25.957Z,8.30
2019-03-29T19:17:54.849Z,8.20
2019-03-29T19:20:27.823Z,8.20
2019-03-29T19:22:54.063Z,8.00
2019-03-29T19:25:22.848Z,7.90
2019-03-29T19:27:51.570Z,7.70
2019-03-29T19:30:21.017Z,7.60
2019-03-29T19:32:49.645Z,7.50
2019-03-29T19:35:18.242Z,7.50
2019-03-29T19:37:47.238Z,7.40
2019-03-29T19:40:15.955Z,7.30
2019-03-29T19:42:44.577Z,7.30
2019-03-29T19:45:14.669Z,7.30
2019-03-29T19:47:43.375Z,7.30
2019-03-29T19:50:12.557Z,7.20
2019-03-29T19:52:41.091Z,7.10
2019-03-29T19:55:10.811Z,6.90
2019-03-29T19:57:40.030Z,6.80
2019-03-29T20:00:13.106Z,6.80
2019-03-29T20:02:42.463Z,6.60
2019-03-29T20:05:28.444Z,6.60
2019-03-29T20:07:57.440Z,6.40
2019-03-29T20:10:26.182Z,6.40
2019-03-29T20:12:54.886Z,6.40
2019-03-29T20:15:23.554Z,6.20
2019-03-29T20:17:52.542Z,6.10
2019-03-29T20:20:27.524Z,6.10
2019-03-29T20:22:56.943Z,6.30
2019-03-29T20:25:25.662Z,6.10
2019-03-29T20:27:57.999Z,6.00
2019-03-29T20:30:25.599Z,5.90
2019-03-29T20:32:54.244Z,5.90
2019-03-29T20:35:22.837Z,5.80
2019-03-29T20:37:51.473Z,5.70
2019-03-29T20:40:20.146Z,5.60
2019-03-29T20:42:49.251Z,5.50
2019-03-29T20:45:18.076Z,5.50
2019-03-29T20:47:46.790Z,5.40
2019-03-29T20:50:15.514Z,5.30
2019-03-29T20:52:44.085Z,5.30
2019-03-29T20:55:12.807Z,5.20
2019-03-29T20:57:41.461Z,5.10
2019-03-29T21:00:12.428Z,5.10
2019-03-29T21:02:41.786Z,5.00
2019-03-29T21:05:10.553Z,5.10
2019-03-29T21:07:39.130Z,5.00
2019-03-29T21:10:09.140Z,5.00
2019-03-29T21:12:37.835Z,4.80
2019-03-29T21:15:07.321Z,4.80
2019-03-29T21:17:36.868Z,4.70
2019-03-29T21:20:07.776Z,4.60
2019-03-29T21:22:36.398Z,4.50
2019-03-29T21:25:08.364Z,4.40
2019-03-29T21:27:37.518Z,4.30
2019-03-29T21:30:08.868Z,4.40
2019-03-29T21:32:37.608Z,4.40
2019-03-29T21:35:07.821Z,4.30
2019-03-29T21:37:37.270Z,4.30
2019-03-29T21:40:08.091Z,4.20
2019-03-29T21:42:37.125Z,4.20
2019-03-29T21:45:07.650Z,4.20
2019-03-29T21:47:37.886Z,4.10
2019-03-29T21:50:09.685Z,4.00
2019-03-29T21:52:38.286Z,3.90
2019-03-29T21:55:08.003Z,3.80
2019-03-29T21:57:36.685Z,3.70
2019-03-29T22:00:10.846Z,3.70
2019-03-29T22:02:39.542Z,3.70
2019-03-29T22:05:10.306Z,3.60
2019-03-29T22:07:39.027Z,3.70
2019-03-29T22:10:10.968Z,3.70
2019-03-29T22:12:42.765Z,3.50
2019-03-29T22:15:10.541Z,3.50
2019-03-29T22:17:39.238Z,3.40
2019-03-29T22:20:09.632Z,3.30
2019-03-29T22:22:38.582Z,3.20
2019-03-29T22:25:08.410Z,3.20
2019-03-29T22:27:37.245Z,3.20
2019-03-29T22:30:08.540Z,3.20
2019-03-29T22:32:37.129Z,3.10
2019-03-29T22:35:07.490Z,3.10
2019-03-29T22:37:36.177Z,3.30
2019-03-29T22:40:07.307Z,3.20
2019-03-29T22:42:35.898Z,3.10
2019-03-29T22:45:07.666Z,2.90
2019-03-29T22:47:36.241Z,2.90
2019-03-29T22:50:06.401Z,3.00
2019-03-29T22:52:35.415Z,2.90
2019-03-29T22:55:06.611Z,2.90
2019-03-29T22:57:35.213Z,2.90
2019-03-29T23:00:06.910Z,2.70
2019-03-29T23:02:34.677Z,2.70
2019-03-29T23:05:03.946Z,2.60
2019-03-29T23:07:32.611Z,2.50
2019-03-29T23:10:01.205Z,2.60
2019-03-29T23:12:29.843Z,2.60
2019-03-29T23:14:58.404Z,2.50
2019-03-29T23:17:27.102Z,2.40
2019-03-29T23:19:55.738Z,2.30
2019-03-29T23:22:24.350Z,2.30
2019-03-29T23:24:53.028Z,2.20
2019-03-29T23:27:21.635Z,2.10
2019-03-29T23:29:50.237Z,2.00
2019-03-29T23:32:18.906Z,2.00
2019-03-29T23:34:47.495Z,2.00
2019-03-29T23:37:16.131Z,2.00
2019-03-29T23:39:44.874Z,2.00
2019-03-29T23:42:13.563Z,2.00
2019-03-29T23:44:42.168Z,2.00
2019-03-29T23:47:10.739Z,1.90
2019-03-29T23:49:39.354Z,1.90
2019-03-29T23:52:08.085Z,1.90
2019-03-29T23:54:36.734Z,1.80
2019-03-29T23:57:05.407Z,1.80
2019-03-29T23:59:34.061Z,1.70
